Hlavní strana
METAR-TAF:

METAR-TAF

Letiště :

Letiště Linate

Milán, Itálie

zeměpisná šířka: 45-26N, zeměpisná délka: 009-17E, výška: 107 m

Aktuální stav počasí

Zpráva byla vytvořena před 47 minutami, v 01:50 UTC
Západní vítr 4 kt
Teplota 25°C
Vlhkost vzduchu 57%
Tlak 1011 hPa
Viditelnost 10 km a více

METAR: LIML 160150Z AUTO 27004KT 9999 NCD 25/16 Q1011

Čas: 04:37 (02:37 UTC)

Předpověď počasí

Zpráva byla vytvořena před 3 hodinami a 37 minutami, v 23:00 UTC
Předpověď platná od 16 v 00 UTC do 16 v 24 UTC
Západojihozápadní vítr 6 kt
Viditelnost 10 km a více
Žádná oblačnost pod 1500 m, nevyskytují se cumulonimby.

TAF: LIML 152300Z 1600/1624 25006KT CAVOK

Stav a předpovědi počasí z více než 4 000 letišť (zprávy METAR a TAF).

Červené a žluté tečky na mapě představují dostupné meteorologické stanice.

Když kurzor umístíte na tečku, zobrazí se název stanice.

Pak kliknutím zobrazíte stav a předpověď počasí.

Chcete-li změnit mapu, kliknutím na zelené tlačítko se znaménkem +mapu přiblížíte, kliknutím na zelené tlačítko se znaménkem – mapu oddálíte a kliknutím na zelené šipky přejdete na sousední mapy.


METAR-TAF: